sensor_id;sensor_type;location;lat;lon;timestamp;temperature;humidity
16479;DHT22;8350;52.316;10.530;2023-03-31T00:02:10;10.70;99.90
16479;DHT22;8350;52.316;10.530;2023-03-31T00:04:39;10.60;99.90
16479;DHT22;8350;52.316;10.530;2023-03-31T00:07:12;10.50;99.90
16479;DHT22;8350;52.316;10.530;2023-03-31T00:09:40;10.50;99.90
16479;DHT22;8350;52.316;10.530;2023-03-31T00:12:11;10.50;99.90
16479;DHT22;8350;52.316;10.530;2023-03-31T00:14:38;10.40;99.90
16479;DHT22;8350;52.316;10.530;2023-03-31T00:17:06;10.30;99.90
16479;DHT22;8350;52.316;10.530;2023-03-31T00:19:34;10.30;99.90
16479;DHT22;8350;52.316;10.530;2023-03-31T00:22:01;10.20;99.90
16479;DHT22;8350;52.316;10.530;2023-03-31T00:24:33;10.20;99.90
16479;DHT22;8350;52.316;10.530;2023-03-31T00:27:01;10.20;99.90
16479;DHT22;8350;52.316;10.530;2023-03-31T00:29:28;10.20;99.90
16479;DHT22;8350;52.316;10.530;2023-03-31T00:31:56;10.10;99.90
16479;DHT22;8350;52.316;10.530;2023-03-31T00:34:27;10.10;99.90
16479;DHT22;8350;52.316;10.530;2023-03-31T00:36:54;10.10;99.90
16479;DHT22;8350;52.316;10.530;2023-03-31T00:39:27;10.10;99.90
16479;DHT22;8350;52.316;10.530;2023-03-31T00:42:01;10.10;99.90
16479;DHT22;8350;52.316;10.530;2023-03-31T00:44:29;10.10;99.90
16479;DHT22;8350;52.316;10.530;2023-03-31T00:47:02;10.20;99.90
16479;DHT22;8350;52.316;10.530;2023-03-31T00:49:34;10.20;99.90
16479;DHT22;8350;52.316;10.530;2023-03-31T00:52:07;10.10;99.90
16479;DHT22;8350;52.316;10.530;2023-03-31T00:54:39;10.20;99.90
16479;DHT22;8350;52.316;10.530;2023-03-31T00:57:08;10.20;99.90
16479;DHT22;8350;52.316;10.530;2023-03-31T00:59:39;10.20;99.90
16479;DHT22;8350;52.316;10.530;2023-03-31T01:02:08;10.20;99.90
16479;DHT22;8350;52.316;10.530;2023-03-31T01:04:40;10.20;99.90
16479;DHT22;8350;52.316;10.530;2023-03-31T01:07:13;10.20;99.90
16479;DHT22;8350;52.316;10.530;2023-03-31T01:09:43;10.20;99.90
16479;DHT22;8350;52.316;10.530;2023-03-31T01:12:16;10.30;99.90
16479;DHT22;8350;52.316;10.530;2023-03-31T01:14:43;10.20;99.90
16479;DHT22;8350;52.316;10.530;2023-03-31T01:17:10;10.30;99.90
16479;DHT22;8350;52.316;10.530;2023-03-31T01:19:56;10.30;99.90
16479;DHT22;8350;52.316;10.530;2023-03-31T01:26:08;10.20;99.90
16479;DHT22;8350;52.316;10.530;2023-03-31T01:28:44;10.20;99.90
16479;DHT22;8350;52.316;10.530;2023-03-31T01:40:55;10.20;99.90
16479;DHT22;8350;52.316;10.530;2023-03-31T01:43:30;10.20;99.90
16479;DHT22;8350;52.316;10.530;2023-03-31T01:46:02;10.20;99.90
16479;DHT22;8350;52.316;10.530;2023-03-31T01:48:37;10.20;99.90
16479;DHT22;8350;52.316;10.530;2023-03-31T01:51:14;10.20;99.90
16479;DHT22;8350;52.316;10.530;2023-03-31T01:53:49;10.20;99.90
16479;DHT22;8350;52.316;10.530;2023-03-31T01:56:23;10.20;99.90
16479;DHT22;8350;52.316;10.530;2023-03-31T01:58:54;10.20;99.90
16479;DHT22;8350;52.316;10.530;2023-03-31T02:01:27;10.20;99.90
16479;DHT22;8350;52.316;10.530;2023-03-31T02:03:59;10.20;99.90
16479;DHT22;8350;52.316;10.530;2023-03-31T02:06:34;10.30;99.90
16479;DHT22;8350;52.316;10.530;2023-03-31T02:09:08;10.30;99.90
16479;DHT22;8350;52.316;10.530;2023-03-31T02:11:38;10.40;93.20
16479;DHT22;8350;52.316;10.530;2023-03-31T02:14:09;10.40;92.00
16479;DHT22;8350;52.316;10.530;2023-03-31T02:16:40;10.40;93.00
16479;DHT22;8350;52.316;10.530;2023-03-31T02:19:14;10.40;75.50
16479;DHT22;8350;52.316;10.530;2023-03-31T02:21:44;10.30;65.90
16479;DHT22;8350;52.316;10.530;2023-03-31T02:24:31;10.40;60.50
16479;DHT22;8350;52.316;10.530;2023-03-31T02:27:05;10.30;51.40
16479;DHT22;8350;52.316;10.530;2023-03-31T02:29:33;10.30;46.10
16479;DHT22;8350;52.316;10.530;2023-03-31T02:32:05;10.20;46.90
16479;DHT22;8350;52.316;10.530;2023-03-31T02:34:34;10.10;47.90
16479;DHT22;8350;52.316;10.530;2023-03-31T02:37:01;10.10;52.80
16479;DHT22;8350;52.316;10.530;2023-03-31T02:39:35;10.00;49.60
16479;DHT22;8350;52.316;10.530;2023-03-31T02:42:04;10.00;47.40
16479;DHT22;8350;52.316;10.530;2023-03-31T02:44:33;9.90;51.70
16479;DHT22;8350;52.316;10.530;2023-03-31T02:47:00;9.90;53.70
16479;DHT22;8350;52.316;10.530;2023-03-31T02:49:28;9.90;53.20
16479;DHT22;8350;52.316;10.530;2023-03-31T02:52:20;9.90;45.70
16479;DHT22;8350;52.316;10.530;2023-03-31T02:55:10;9.80;44.60
16479;DHT22;8350;52.316;10.530;2023-03-31T02:58:04;9.80;44.00
16479;DHT22;8350;52.316;10.530;2023-03-31T03:00:43;9.80;40.60
16479;DHT22;8350;52.316;10.530;2023-03-31T03:03:38;9.80;41.00
16479;DHT22;8350;52.316;10.530;2023-03-31T03:06:32;9.70;44.50
16479;DHT22;8350;52.316;10.530;2023-03-31T03:09:22;9.60;43.40
16479;DHT22;8350;52.316;10.530;2023-03-31T03:12:02;9.60;54.60
16479;DHT22;8350;52.316;10.530;2023-03-31T03:14:37;9.50;55.00
16479;DHT22;8350;52.316;10.530;2023-03-31T03:17:07;9.60;70.10
16479;DHT22;8350;52.316;10.530;2023-03-31T03:19:35;9.50;59.20
16479;DHT22;8350;52.316;10.530;2023-03-31T03:22:02;9.50;63.70
16479;DHT22;8350;52.316;10.530;2023-03-31T03:24:29;9.50;66.60
16479;DHT22;8350;52.316;10.530;2023-03-31T03:26:59;9.40;76.40
16479;DHT22;8350;52.316;10.530;2023-03-31T03:29:26;9.40;86.90
16479;DHT22;8350;52.316;10.530;2023-03-31T03:31:54;9.50;88.20
16479;DHT22;8350;52.316;10.530;2023-03-31T03:34:21;9.50;84.40
16479;DHT22;8350;52.316;10.530;2023-03-31T03:36:50;9.60;71.20
16479;DHT22;8350;52.316;10.530;2023-03-31T03:39:17;9.70;58.50
16479;DHT22;8350;52.316;10.530;2023-03-31T03:41:44;9.70;52.40
16479;DHT22;8350;52.316;10.530;2023-03-31T03:44:11;9.80;50.60
16479;DHT22;8350;52.316;10.530;2023-03-31T03:46:38;9.80;46.70
16479;DHT22;8350;52.316;10.530;2023-03-31T03:49:08;9.80;38.80
16479;DHT22;8350;52.316;10.530;2023-03-31T03:51:35;9.90;29.30
16479;DHT22;8350;52.316;10.530;2023-03-31T03:54:02;9.90;28.50
16479;DHT22;8350;52.316;10.530;2023-03-31T03:56:29;10.00;23.90
16479;DHT22;8350;52.316;10.530;2023-03-31T03:58:56;10.00;12.50
16479;DHT22;8350;52.316;10.530;2023-03-31T04:01:24;10.00;7.70
16479;DHT22;8350;52.316;10.530;2023-03-31T04:03:51;10.00;7.70
16479;DHT22;8350;52.316;10.530;2023-03-31T04:06:19;10.00;7.90
16479;DHT22;8350;52.316;10.530;2023-03-31T04:08:49;10.00;2.20
16479;DHT22;8350;52.316;10.530;2023-03-31T04:11:17;10.00;2.20
16479;DHT22;8350;52.316;10.530;2023-03-31T04:13:45;10.00;1.00
16479;DHT22;8350;52.316;10.530;2023-03-31T04:16:12;10.00;1.00
16479;DHT22;8350;52.316;10.530;2023-03-31T04:18:39;9.90;1.00
16479;DHT22;8350;52.316;10.530;2023-03-31T04:21:07;9.90;1.00
16479;DHT22;8350;52.316;10.530;2023-03-31T04:23:39;9.90;1.20
16479;DHT22;8350;52.316;10.530;2023-03-31T04:26:07;9.80;1.20
16479;DHT22;8350;52.316;10.530;2023-03-31T04:28:35;9.80;1.00
16479;DHT22;8350;52.316;10.530;2023-03-31T04:31:03;9.70;8.80
16479;DHT22;8350;52.316;10.530;2023-03-31T04:33:31;9.70;7.00
16479;DHT22;8350;52.316;10.530;2023-03-31T04:36:03;9.80;6.20
16479;DHT22;8350;52.316;10.530;2023-03-31T04:38:44;9.70;7.50
16479;DHT22;8350;52.316;10.530;2023-03-31T04:41:17;9.70;8.10
16479;DHT22;8350;52.316;10.530;2023-03-31T04:43:44;9.70;13.50
16479;DHT22;8350;52.316;10.530;2023-03-31T04:46:11;9.60;17.90
16479;DHT22;8350;52.316;10.530;2023-03-31T04:48:38;9.70;17.70
16479;DHT22;8350;52.316;10.530;2023-03-31T04:51:05;9.60;13.10
16479;DHT22;8350;52.316;10.530;2023-03-31T04:53:33;9.60;19.20
16479;DHT22;8350;52.316;10.530;2023-03-31T04:56:02;9.50;20.20
16479;DHT22;8350;52.316;10.530;2023-03-31T04:58:30;9.60;30.40
16479;DHT22;8350;52.316;10.530;2023-03-31T05:00:57;9.60;20.20
16479;DHT22;8350;52.316;10.530;2023-03-31T05:03:24;9.60;27.20
16479;DHT22;8350;52.316;10.530;2023-03-31T05:05:54;9.60;20.90
16479;DHT22;8350;52.316;10.530;2023-03-31T05:08:21;9.50;25.30
16479;DHT22;8350;52.316;10.530;2023-03-31T05:10:48;9.60;20.90
16479;DHT22;8350;52.316;10.530;2023-03-31T05:13:17;9.70;14.80
16479;DHT22;8350;52.316;10.530;2023-03-31T05:15:44;9.80;1.00
16479;DHT22;8350;52.316;10.530;2023-03-31T05:18:12;9.80;1.00
16479;DHT22;8350;52.316;10.530;2023-03-31T05:20:41;9.80;1.00
16479;DHT22;8350;52.316;10.530;2023-03-31T05:23:11;9.90;1.00
16479;DHT22;8350;52.316;10.530;2023-03-31T05:25:40;9.90;1.00
16479;DHT22;8350;52.316;10.530;2023-03-31T05:28:07;9.90;1.00
16479;DHT22;8350;52.316;10.530;2023-03-31T05:30:35;10.00;1.00
16479;DHT22;8350;52.316;10.530;2023-03-31T05:33:02;10.10;1.00
16479;DHT22;8350;52.316;10.530;2023-03-31T05:35:29;10.20;1.00
16479;DHT22;8350;52.316;10.530;2023-03-31T05:37:56;10.30;1.00
16479;DHT22;8350;52.316;10.530;2023-03-31T05:40:23;10.40;1.00
16479;DHT22;8350;52.316;10.530;2023-03-31T05:42:50;10.30;1.00
16479;DHT22;8350;52.316;10.530;2023-03-31T05:45:17;10.30;1.00
16479;DHT22;8350;52.316;10.530;2023-03-31T05:47:45;10.20;1.00
16479;DHT22;8350;52.316;10.530;2023-03-31T05:50:13;10.20;1.00
16479;DHT22;8350;52.316;10.530;2023-03-31T05:52:40;10.20;1.00
16479;DHT22;8350;52.316;10.530;2023-03-31T05:55:08;10.20;1.00
16479;DHT22;8350;52.316;10.530;2023-03-31T05:57:35;10.20;1.00
16479;DHT22;8350;52.316;10.530;2023-03-31T06:00:03;10.30;1.00
16479;DHT22;8350;52.316;10.530;2023-03-31T06:02:33;10.30;1.00
16479;DHT22;8350;52.316;10.530;2023-03-31T06:05:02;10.30;1.00
16479;DHT22;8350;52.316;10.530;2023-03-31T06:07:32;10.40;1.00
16479;DHT22;8350;52.316;10.530;2023-03-31T06:09:59;10.40;1.00
16479;DHT22;8350;52.316;10.530;2023-03-31T06:12:32;10.40;1.00
16479;DHT22;8350;52.316;10.530;2023-03-31T06:15:05;10.40;1.00
16479;DHT22;8350;52.316;10.530;2023-03-31T06:17:33;10.40;1.00
16479;DHT22;8350;52.316;10.530;2023-03-31T06:19:59;10.40;1.00
16479;DHT22;8350;52.316;10.530;2023-03-31T06:22:35;10.40;1.00
16479;DHT22;8350;52.316;10.530;2023-03-31T06:25:01;10.40;1.00
16479;DHT22;8350;52.316;10.530;2023-03-31T06:27:28;10.50;1.00
16479;DHT22;8350;52.316;10.530;2023-03-31T06:29:55;10.50;1.00
16479;DHT22;8350;52.316;10.530;2023-03-31T06:32:23;10.50;1.00
16479;DHT22;8350;52.316;10.530;2023-03-31T06:34:51;10.60;1.00
16479;DHT22;8350;52.316;10.530;2023-03-31T06:37:18;10.60;1.00
16479;DHT22;8350;52.316;10.530;2023-03-31T06:39:46;10.70;1.00
16479;DHT22;8350;52.316;10.530;2023-03-31T06:42:13;10.70;1.00
16479;DHT22;8350;52.316;10.530;2023-03-31T06:44:40;10.80;1.00
16479;DHT22;8350;52.316;10.530;2023-03-31T06:47:11;10.80;1.00
16479;DHT22;8350;52.316;10.530;2023-03-31T06:49:38;10.80;1.00
16479;DHT22;8350;52.316;10.530;2023-03-31T06:52:05;10.90;1.00
16479;DHT22;8350;52.316;10.530;2023-03-31T06:54:32;11.00;1.00
16479;DHT22;8350;52.316;10.530;2023-03-31T06:57:01;11.10;1.00
16479;DHT22;8350;52.316;10.530;2023-03-31T06:59:28;11.20;1.00
16479;DHT22;8350;52.316;10.530;2023-03-31T07:01:54;11.30;1.00
16479;DHT22;8350;52.316;10.530;2023-03-31T07:04:21;11.30;1.00
16479;DHT22;8350;52.316;10.530;2023-03-31T07:06:48;11.30;1.00
16479;DHT22;8350;52.316;10.530;2023-03-31T07:09:15;11.30;1.00
16479;DHT22;8350;52.316;10.530;2023-03-31T07:11:43;11.30;1.00
16479;DHT22;8350;52.316;10.530;2023-03-31T07:14:11;11.30;1.00
16479;DHT22;8350;52.316;10.530;2023-03-31T07:16:38;11.30;1.00
16479;DHT22;8350;52.316;10.530;2023-03-31T07:19:20;11.40;1.00
16479;DHT22;8350;52.316;10.530;2023-03-31T07:21:47;11.50;1.00
16479;DHT22;8350;52.316;10.530;2023-03-31T07:24:15;11.50;1.00
16479;DHT22;8350;52.316;10.530;2023-03-31T07:26:42;11.40;1.00
16479;DHT22;8350;52.316;10.530;2023-03-31T07:29:14;11.50;1.00
16479;DHT22;8350;52.316;10.530;2023-03-31T07:31:41;11.40;1.00
16479;DHT22;8350;52.316;10.530;2023-03-31T07:34:08;11.40;1.00
16479;DHT22;8350;52.316;10.530;2023-03-31T07:36:34;11.30;1.00
16479;DHT22;8350;52.316;10.530;2023-03-31T07:39:04;11.20;1.50
16479;DHT22;8350;52.316;10.530;2023-03-31T07:41:31;11.20;23.30
16479;DHT22;8350;52.316;10.530;2023-03-31T07:43:58;11.20;39.00
16479;DHT22;8350;52.316;10.530;2023-03-31T07:46:27;11.30;35.30
16479;DHT22;8350;52.316;10.530;2023-03-31T07:48:55;11.30;29.90
16479;DHT22;8350;52.316;10.530;2023-03-31T07:51:25;11.30;20.80
16479;DHT22;8350;52.316;10.530;2023-03-31T07:53:52;11.30;11.80
16479;DHT22;8350;52.316;10.530;2023-03-31T07:56:21;11.20;10.90
16479;DHT22;8350;52.316;10.530;2023-03-31T07:58:48;11.20;8.90
16479;DHT22;8350;52.316;10.530;2023-03-31T08:01:16;11.20;1.00
16479;DHT22;8350;52.316;10.530;2023-03-31T08:03:46;11.30;1.00
16479;DHT22;8350;52.316;10.530;2023-03-31T08:06:17;11.30;1.00
16479;DHT22;8350;52.316;10.530;2023-03-31T08:08:45;11.30;3.50
16479;DHT22;8350;52.316;10.530;2023-03-31T08:11:12;11.30;3.90
16479;DHT22;8350;52.316;10.530;2023-03-31T08:13:39;11.30;1.00
16479;DHT22;8350;52.316;10.530;2023-03-31T08:16:12;11.30;1.00
16479;DHT22;8350;52.316;10.530;2023-03-31T08:18:39;11.30;1.00
16479;DHT22;8350;52.316;10.530;2023-03-31T08:21:09;11.30;1.00
16479;DHT22;8350;52.316;10.530;2023-03-31T08:23:36;11.30;1.00
16479;DHT22;8350;52.316;10.530;2023-03-31T08:26:08;11.30;1.00
16479;DHT22;8350;52.316;10.530;2023-03-31T08:28:35;11.30;1.00
16479;DHT22;8350;52.316;10.530;2023-03-31T08:31:03;11.40;1.00
16479;DHT22;8350;52.316;10.530;2023-03-31T08:33:30;11.40;1.00
16479;DHT22;8350;52.316;10.530;2023-03-31T08:36:01;11.40;6.30
16479;DHT22;8350;52.316;10.530;2023-03-31T08:38:30;11.50;1.00
16479;DHT22;8350;52.316;10.530;2023-03-31T08:40:58;11.50;1.90
16479;DHT22;8350;52.316;10.530;2023-03-31T08:43:29;11.50;15.40
16479;DHT22;8350;52.316;10.530;2023-03-31T08:45:57;11.50;1.00
16479;DHT22;8350;52.316;10.530;2023-03-31T08:48:28;11.50;1.00
16479;DHT22;8350;52.316;10.530;2023-03-31T08:51:05;11.60;1.00
16479;DHT22;8350;52.316;10.530;2023-03-31T08:53:38;11.70;1.00
16479;DHT22;8350;52.316;10.530;2023-03-31T08:56:12;11.70;1.00
16479;DHT22;8350;52.316;10.530;2023-03-31T08:58:43;11.70;1.00
16479;DHT22;8350;52.316;10.530;2023-03-31T09:01:19;11.80;1.00
16479;DHT22;8350;52.316;10.530;2023-03-31T09:04:04;11.70;1.00
16479;DHT22;8350;52.316;10.530;2023-03-31T09:06:35;11.70;1.00
16479;DHT22;8350;52.316;10.530;2023-03-31T09:09:09;11.70;1.00
16479;DHT22;8350;52.316;10.530;2023-03-31T09:11:39;11.80;1.00
16479;DHT22;8350;52.316;10.530;2023-03-31T09:14:24;11.80;1.00
16479;DHT22;8350;52.316;10.530;2023-03-31T09:17:03;11.90;1.00
16479;DHT22;8350;52.316;10.530;2023-03-31T09:19:40;11.90;1.00
16479;DHT22;8350;52.316;10.530;2023-03-31T09:22:12;11.90;1.00
16479;DHT22;8350;52.316;10.530;2023-03-31T09:24:50;11.90;1.00
16479;DHT22;8350;52.316;10.530;2023-03-31T09:27:21;11.90;1.00
16479;DHT22;8350;52.316;10.530;2023-03-31T09:29:56;11.90;1.00
16479;DHT22;8350;52.316;10.530;2023-03-31T09:32:39;11.80;1.00
16479;DHT22;8350;52.316;10.530;2023-03-31T09:35:15;11.90;1.00
16479;DHT22;8350;52.316;10.530;2023-03-31T09:37:43;11.90;1.00
16479;DHT22;8350;52.316;10.530;2023-03-31T09:40:16;11.90;1.00
16479;DHT22;8350;52.316;10.530;2023-03-31T09:42:44;11.80;1.00
16479;DHT22;8350;52.316;10.530;2023-03-31T09:45:16;11.90;1.00
16479;DHT22;8350;52.316;10.530;2023-03-31T09:47:54;11.90;1.00
16479;DHT22;8350;52.316;10.530;2023-03-31T09:50:22;11.90;1.00
16479;DHT22;8350;52.316;10.530;2023-03-31T09:52:51;11.80;1.00
16479;DHT22;8350;52.316;10.530;2023-03-31T09:55:23;11.80;1.00
16479;DHT22;8350;52.316;10.530;2023-03-31T09:57:59;11.80;1.00
16479;DHT22;8350;52.316;10.530;2023-03-31T10:00:26;11.70;1.00
16479;DHT22;8350;52.316;10.530;2023-03-31T10:02:54;11.70;1.00
16479;DHT22;8350;52.316;10.530;2023-03-31T10:05:31;11.60;1.00
16479;DHT22;8350;52.316;10.530;2023-03-31T10:08:20;11.50;1.00
16479;DHT22;8350;52.316;10.530;2023-03-31T10:10:50;11.50;1.00
16479;DHT22;8350;52.316;10.530;2023-03-31T10:13:20;11.40;1.00
16479;DHT22;8350;52.316;10.530;2023-03-31T10:15:51;11.30;1.00
16479;DHT22;8350;52.316;10.530;2023-03-31T10:18:19;11.30;1.00
16479;DHT22;8350;52.316;10.530;2023-03-31T10:20:49;11.30;4.20
16479;DHT22;8350;52.316;10.530;2023-03-31T10:23:29;11.30;16.70
16479;DHT22;8350;52.316;10.530;2023-03-31T10:25:59;11.20;23.30
16479;DHT22;8350;52.316;10.530;2023-03-31T10:28:30;11.10;28.20
16479;DHT22;8350;52.316;10.530;2023-03-31T10:30:58;10.90;53.00
16479;DHT22;8350;52.316;10.530;2023-03-31T10:33:31;10.90;78.70
16479;DHT22;8350;52.316;10.530;2023-03-31T10:36:06;10.80;70.10
16479;DHT22;8350;52.316;10.530;2023-03-31T10:38:36;10.70;93.50
16479;DHT22;8350;52.316;10.530;2023-03-31T10:41:06;10.60;99.90
16479;DHT22;8350;52.316;10.530;2023-03-31T10:43:37;10.70;99.90
16479;DHT22;8350;52.316;10.530;2023-03-31T10:46:06;10.50;99.90
16479;DHT22;8350;52.316;10.530;2023-03-31T10:48:57;10.50;99.90
16479;DHT22;8350;52.316;10.530;2023-03-31T10:51:26;10.40;99.90
16479;DHT22;8350;52.316;10.530;2023-03-31T10:53:56;10.40;99.90
16479;DHT22;8350;52.316;10.530;2023-03-31T10:56:35;10.40;99.90
16479;DHT22;8350;52.316;10.530;2023-03-31T10:59:23;10.30;99.90
16479;DHT22;8350;52.316;10.530;2023-03-31T11:02:19;10.30;99.90
16479;DHT22;8350;52.316;10.530;2023-03-31T11:04:55;10.20;99.90
16479;DHT22;8350;52.316;10.530;2023-03-31T11:07:34;10.20;99.90
16479;DHT22;8350;52.316;10.530;2023-03-31T11:10:19;10.20;99.90
16479;DHT22;8350;52.316;10.530;2023-03-31T11:12:56;10.10;99.90
16479;DHT22;8350;52.316;10.530;2023-03-31T11:15:29;10.10;99.90
16479;DHT22;8350;52.316;10.530;2023-03-31T11:18:20;10.10;99.90
16479;DHT22;8350;52.316;10.530;2023-03-31T11:20:58;10.00;99.90
16479;DHT22;8350;52.316;10.530;2023-03-31T11:23:37;10.00;99.90
16479;DHT22;8350;52.316;10.530;2023-03-31T11:26:13;10.00;99.90
16479;DHT22;8350;52.316;10.530;2023-03-31T11:28:59;9.90;99.90
16479;DHT22;8350;52.316;10.530;2023-03-31T11:31:38;10.00;99.90
16479;DHT22;8350;52.316;10.530;2023-03-31T11:34:27;9.90;99.90
16479;DHT22;8350;52.316;10.530;2023-03-31T11:37:16;10.00;99.90
16479;DHT22;8350;52.316;10.530;2023-03-31T11:39:53;10.00;99.90
16479;DHT22;8350;52.316;10.530;2023-03-31T11:42:28;10.00;99.90
16479;DHT22;8350;52.316;10.530;2023-03-31T11:45:03;10.10;99.90
16479;DHT22;8350;52.316;10.530;2023-03-31T11:47:53;10.10;99.90
16479;DHT22;8350;52.316;10.530;2023-03-31T11:50:23;10.10;99.90
16479;DHT22;8350;52.316;10.530;2023-03-31T11:52:57;10.10;99.90
16479;DHT22;8350;52.316;10.530;2023-03-31T11:55:28;10.10;99.90
16479;DHT22;8350;52.316;10.530;2023-03-31T11:58:01;10.20;99.90
16479;DHT22;8350;52.316;10.530;2023-03-31T12:00:34;10.20;99.90
16479;DHT22;8350;52.316;10.530;2023-03-31T12:03:09;10.30;99.90
16479;DHT22;8350;52.316;10.530;2023-03-31T12:05:40;10.30;99.90
16479;DHT22;8350;52.316;10.530;2023-03-31T12:08:12;10.30;99.90
16479;DHT22;8350;52.316;10.530;2023-03-31T12:10:43;10.30;99.90
16479;DHT22;8350;52.316;10.530;2023-03-31T12:13:28;10.30;99.90
16479;DHT22;8350;52.316;10.530;2023-03-31T12:16:03;10.30;99.90
16479;DHT22;8350;52.316;10.530;2023-03-31T12:18:34;10.40;99.90
16479;DHT22;8350;52.316;10.530;2023-03-31T12:21:03;10.40;99.90
16479;DHT22;8350;52.316;10.530;2023-03-31T12:23:36;10.50;99.90
16479;DHT22;8350;52.316;10.530;2023-03-31T12:26:09;10.50;99.90
16479;DHT22;8350;52.316;10.530;2023-03-31T12:28:40;10.60;99.90
16479;DHT22;8350;52.316;10.530;2023-03-31T12:31:15;10.60;99.90
16479;DHT22;8350;52.316;10.530;2023-03-31T12:33:45;10.60;99.90
16479;DHT22;8350;52.316;10.530;2023-03-31T12:36:25;10.70;99.90
16479;DHT22;8350;52.316;10.530;2023-03-31T12:39:04;10.70;99.90
16479;DHT22;8350;52.316;10.530;2023-03-31T12:41:39;10.70;99.90
16479;DHT22;8350;52.316;10.530;2023-03-31T12:44:20;10.80;99.90
16479;DHT22;8350;52.316;10.530;2023-03-31T12:47:12;10.90;99.90
16479;DHT22;8350;52.316;10.530;2023-03-31T12:50:20;11.00;99.90
16479;DHT22;8350;52.316;10.530;2023-03-31T12:52:56;11.10;99.90
16479;DHT22;8350;52.316;10.530;2023-03-31T12:55:32;11.20;99.90
16479;DHT22;8350;52.316;10.530;2023-03-31T13:01:04;11.30;99.90
16479;DHT22;8350;52.316;10.530;2023-03-31T13:03:47;11.40;99.90
16479;DHT22;8350;52.316;10.530;2023-03-31T13:09:40;11.60;99.90
16479;DHT22;8350;52.316;10.530;2023-03-31T13:12:12;11.60;99.90
16479;DHT22;8350;52.316;10.530;2023-03-31T13:14:42;11.70;99.90
16479;DHT22;8350;52.316;10.530;2023-03-31T13:17:13;11.80;99.90
16479;DHT22;8350;52.316;10.530;2023-03-31T13:19:48;11.80;99.90
16479;DHT22;8350;52.316;10.530;2023-03-31T13:22:33;12.00;99.90
16479;DHT22;8350;52.316;10.530;2023-03-31T13:25:34;12.10;99.90
16479;DHT22;8350;52.316;10.530;2023-03-31T13:28:30;12.10;99.90
16479;DHT22;8350;52.316;10.530;2023-03-31T13:30:59;12.20;99.90
16479;DHT22;8350;52.316;10.530;2023-03-31T13:33:36;12.40;99.90
16479;DHT22;8350;52.316;10.530;2023-03-31T13:42:40;12.90;99.90
16479;DHT22;8350;52.316;10.530;2023-03-31T13:45:26;13.10;99.90
16479;DHT22;8350;52.316;10.530;2023-03-31T13:48:38;13.40;99.90
16479;DHT22;8350;52.316;10.530;2023-03-31T13:51:17;13.60;68.30
16479;DHT22;8350;52.316;10.530;2023-03-31T13:54:17;13.60;20.70
16479;DHT22;8350;52.316;10.530;2023-03-31T13:57:01;13.50;1.00
16479;DHT22;8350;52.316;10.530;2023-03-31T13:59:59;13.50;1.00
16479;DHT22;8350;52.316;10.530;2023-03-31T14:02:58;13.30;1.00
16479;DHT22;8350;52.316;10.530;2023-03-31T14:05:32;13.20;1.00
16479;DHT22;8350;52.316;10.530;2023-03-31T14:08:08;13.20;1.00
16479;DHT22;8350;52.316;10.530;2023-03-31T14:10:38;13.30;1.00
16479;DHT22;8350;52.316;10.530;2023-03-31T14:13:09;13.20;1.00
16479;DHT22;8350;52.316;10.530;2023-03-31T14:15:39;13.00;1.00
16479;DHT22;8350;52.316;10.530;2023-03-31T14:18:27;12.90;1.00
16479;DHT22;8350;52.316;10.530;2023-03-31T14:21:04;12.80;1.00
16479;DHT22;8350;52.316;10.530;2023-03-31T14:23:43;12.80;1.00
16479;DHT22;8350;52.316;10.530;2023-03-31T14:26:21;12.70;1.00
16479;DHT22;8350;52.316;10.530;2023-03-31T14:29:00;12.70;1.00
16479;DHT22;8350;52.316;10.530;2023-03-31T14:31:39;12.80;1.00
16479;DHT22;8350;52.316;10.530;2023-03-31T14:37:33;13.10;1.00
16479;DHT22;8350;52.316;10.530;2023-03-31T14:40:00;13.30;1.00
16479;DHT22;8350;52.316;10.530;2023-03-31T14:42:36;13.40;1.00
16479;DHT22;8350;52.316;10.530;2023-03-31T14:45:10;13.60;1.00
16479;DHT22;8350;52.316;10.530;2023-03-31T14:47:52;13.70;1.00
16479;DHT22;8350;52.316;10.530;2023-03-31T14:50:19;13.80;1.00
16479;DHT22;8350;52.316;10.530;2023-03-31T14:52:52;13.80;1.00
16479;DHT22;8350;52.316;10.530;2023-03-31T14:55:23;13.70;1.00
16479;DHT22;8350;52.316;10.530;2023-03-31T14:57:52;13.60;1.00
16479;DHT22;8350;52.316;10.530;2023-03-31T15:00:24;13.70;1.00
16479;DHT22;8350;52.316;10.530;2023-03-31T15:02:54;13.80;1.00
16479;DHT22;8350;52.316;10.530;2023-03-31T15:05:26;13.70;1.00
16479;DHT22;8350;52.316;10.530;2023-03-31T15:07:58;13.70;1.00
16479;DHT22;8350;52.316;10.530;2023-03-31T15:10:31;13.70;1.00
16479;DHT22;8350;52.316;10.530;2023-03-31T15:13:01;13.70;1.00
16479;DHT22;8350;52.316;10.530;2023-03-31T15:15:33;13.60;1.00
16479;DHT22;8350;52.316;10.530;2023-03-31T15:18:01;13.60;1.00
16479;DHT22;8350;52.316;10.530;2023-03-31T15:20:30;13.60;1.00
16479;DHT22;8350;52.316;10.530;2023-03-31T15:22:58;13.60;1.00
16479;DHT22;8350;52.316;10.530;2023-03-31T15:25:28;13.60;1.00
16479;DHT22;8350;52.316;10.530;2023-03-31T15:27:59;13.70;1.00
16479;DHT22;8350;52.316;10.530;2023-03-31T15:30:27;13.60;1.00
16479;DHT22;8350;52.316;10.530;2023-03-31T15:32:55;13.60;1.00
16479;DHT22;8350;52.316;10.530;2023-03-31T15:35:26;13.50;1.00
16479;DHT22;8350;52.316;10.530;2023-03-31T15:37:56;13.40;1.00
16479;DHT22;8350;52.316;10.530;2023-03-31T15:40:25;13.30;1.00
16479;DHT22;8350;52.316;10.530;2023-03-31T15:42:55;13.10;1.00
16479;DHT22;8350;52.316;10.530;2023-03-31T15:45:45;13.00;1.00
16479;DHT22;8350;52.316;10.530;2023-03-31T15:48:20;12.90;1.00
16479;DHT22;8350;52.316;10.530;2023-03-31T15:50:49;12.80;1.00
16479;DHT22;8350;52.316;10.530;2023-03-31T15:53:29;12.70;1.00
16479;DHT22;8350;52.316;10.530;2023-03-31T15:55:58;12.70;1.00
16479;DHT22;8350;52.316;10.530;2023-03-31T15:58:52;12.60;1.00
16479;DHT22;8350;52.316;10.530;2023-03-31T16:01:20;12.50;1.00
16479;DHT22;8350;52.316;10.530;2023-03-31T16:03:51;12.40;1.00
16479;DHT22;8350;52.316;10.530;2023-03-31T16:06:27;12.30;1.00
16479;DHT22;8350;52.316;10.530;2023-03-31T16:08:58;12.30;1.00
16479;DHT22;8350;52.316;10.530;2023-03-31T16:11:35;12.30;10.10
16479;DHT22;8350;52.316;10.530;2023-03-31T16:14:07;12.20;1.00
16479;DHT22;8350;52.316;10.530;2023-03-31T16:16:39;12.10;5.70
16479;DHT22;8350;52.316;10.530;2023-03-31T16:19:08;12.10;1.00
16479;DHT22;8350;52.316;10.530;2023-03-31T16:21:39;12.10;1.00
16479;DHT22;8350;52.316;10.530;2023-03-31T16:24:07;12.00;6.10
16479;DHT22;8350;52.316;10.530;2023-03-31T16:26:35;12.00;1.00
16479;DHT22;8350;52.316;10.530;2023-03-31T16:29:02;12.00;13.80
16479;DHT22;8350;52.316;10.530;2023-03-31T16:31:33;12.00;10.30
16479;DHT22;8350;52.316;10.530;2023-03-31T16:34:01;11.90;8.30
16479;DHT22;8350;52.316;10.530;2023-03-31T16:36:28;11.90;18.80
16479;DHT22;8350;52.316;10.530;2023-03-31T16:39:00;11.90;19.00
16479;DHT22;8350;52.316;10.530;2023-03-31T16:41:30;11.90;41.20
16479;DHT22;8350;52.316;10.530;2023-03-31T16:43:58;11.80;26.20